sensor_id;sensor_type;location;lat;lon;timestamp;temperature;humidity
47921;DHT22;33686;48.770;9.186;2024-01-07T06:16:40;4.40;99.90
47921;DHT22;33686;48.770;9.186;2024-01-07T06:19:07;4.50;99.90
47921;DHT22;33686;48.770;9.186;2024-01-07T06:21:33;4.40;99.90
47921;DHT22;33686;48.770;9.186;2024-01-07T06:23:58;4.40;99.90
47921;DHT22;33686;48.770;9.186;2024-01-07T06:26:24;4.40;99.90
47921;DHT22;33686;48.770;9.186;2024-01-07T06:28:49;4.40;99.90
47921;DHT22;33686;48.770;9.186;2024-01-07T06:31:15;4.30;99.90
47921;DHT22;33686;48.770;9.186;2024-01-07T06:33:41;4.30;99.90
47921;DHT22;33686;48.770;9.186;2024-01-07T06:36:06;4.30;99.90
47921;DHT22;33686;48.770;9.186;2024-01-07T06:38:32;4.30;99.90
47921;DHT22;33686;48.770;9.186;2024-01-07T06:40:57;4.40;99.90
47921;DHT22;33686;48.770;9.186;2024-01-07T06:43:27;4.40;99.90
47921;DHT22;33686;48.770;9.186;2024-01-07T06:45:52;4.40;99.90
47921;DHT22;33686;48.770;9.186;2024-01-07T06:48:19;4.30;99.90
47921;DHT22;33686;48.770;9.186;2024-01-07T06:50:44;4.30;99.90
47921;DHT22;33686;48.770;9.186;2024-01-07T06:53:10;4.30;99.90
47921;DHT22;33686;48.770;9.186;2024-01-07T06:55:35;4.30;99.90
47921;DHT22;33686;48.770;9.186;2024-01-07T06:58:02;4.30;99.90
47921;DHT22;33686;48.770;9.186;2024-01-07T07:00:27;4.30;99.90
47921;DHT22;33686;48.770;9.186;2024-01-07T07:02:53;4.30;99.90
47921;DHT22;33686;48.770;9.186;2024-01-07T07:05:19;4.30;99.90
47921;DHT22;33686;48.770;9.186;2024-01-07T07:07:44;4.30;99.90
47921;DHT22;33686;48.770;9.186;2024-01-07T07:10:10;4.30;99.90
47921;DHT22;33686;48.770;9.186;2024-01-07T07:12:36;4.30;99.90
47921;DHT22;33686;48.770;9.186;2024-01-07T07:15:02;4.20;99.90
47921;DHT22;33686;48.770;9.186;2024-01-07T07:17:27;4.30;99.90
47921;DHT22;33686;48.770;9.186;2024-01-07T07:19:53;4.20;99.90
47921;DHT22;33686;48.770;9.186;2024-01-07T07:22:18;4.20;99.90
47921;DHT22;33686;48.770;9.186;2024-01-07T07:24:44;4.10;99.90
47921;DHT22;33686;48.770;9.186;2024-01-07T07:27:09;4.10;99.90
47921;DHT22;33686;48.770;9.186;2024-01-07T07:29:35;4.10;99.90
47921;DHT22;33686;48.770;9.186;2024-01-07T07:32:01;4.10;99.90
47921;DHT22;33686;48.770;9.186;2024-01-07T07:34:26;4.10;99.90
47921;DHT22;33686;48.770;9.186;2024-01-07T07:36:52;4.10;99.90
47921;DHT22;33686;48.770;9.186;2024-01-07T07:39:17;4.10;99.90
47921;DHT22;33686;48.770;9.186;2024-01-07T07:41:42;4.00;99.90
47921;DHT22;33686;48.770;9.186;2024-01-07T07:44:08;4.00;99.90
47921;DHT22;33686;48.770;9.186;2024-01-07T07:46:34;4.00;99.90
47921;DHT22;33686;48.770;9.186;2024-01-07T07:48:59;3.90;99.90
47921;DHT22;33686;48.770;9.186;2024-01-07T07:51:26;3.90;99.90
47921;DHT22;33686;48.770;9.186;2024-01-07T07:53:52;3.90;99.90
47921;DHT22;33686;48.770;9.186;2024-01-07T07:56:17;3.90;99.90
47921;DHT22;33686;48.770;9.186;2024-01-07T07:58:43;3.90;99.90
47921;DHT22;33686;48.770;9.186;2024-01-07T08:01:08;3.80;99.90
47921;DHT22;33686;48.770;9.186;2024-01-07T08:03:34;3.80;99.90
47921;DHT22;33686;48.770;9.186;2024-01-07T08:06:00;3.80;99.90
47921;DHT22;33686;48.770;9.186;2024-01-07T08:08:25;3.80;99.90
47921;DHT22;33686;48.770;9.186;2024-01-07T08:10:51;3.80;99.90
47921;DHT22;33686;48.770;9.186;2024-01-07T08:13:16;3.70;99.90
47921;DHT22;33686;48.770;9.186;2024-01-07T08:15:42;3.70;99.90
47921;DHT22;33686;48.770;9.186;2024-01-07T08:18:07;3.80;99.90
47921;DHT22;33686;48.770;9.186;2024-01-07T08:20:33;3.70;99.90
47921;DHT22;33686;48.770;9.186;2024-01-07T08:22:58;3.70;99.90
47921;DHT22;33686;48.770;9.186;2024-01-07T08:25:25;3.70;99.90
47921;DHT22;33686;48.770;9.186;2024-01-07T08:27:51;3.70;99.90
47921;DHT22;33686;48.770;9.186;2024-01-07T08:30:16;3.70;99.90
47921;DHT22;33686;48.770;9.186;2024-01-07T08:32:42;3.70;99.90
47921;DHT22;33686;48.770;9.186;2024-01-07T08:35:08;3.70;99.90
47921;DHT22;33686;48.770;9.186;2024-01-07T08:37:34;3.70;99.90
47921;DHT22;33686;48.770;9.186;2024-01-07T08:40:00;3.60;99.90
47921;DHT22;33686;48.770;9.186;2024-01-07T08:42:26;3.60;99.90
47921;DHT22;33686;48.770;9.186;2024-01-07T08:44:52;3.60;99.90
47921;DHT22;33686;48.770;9.186;2024-01-07T08:47:17;3.60;99.90
47921;DHT22;33686;48.770;9.186;2024-01-07T08:49:43;3.60;99.90
47921;DHT22;33686;48.770;9.186;2024-01-07T08:52:08;3.60;99.90
47921;DHT22;33686;48.770;9.186;2024-01-07T08:54:34;3.60;99.90
47921;DHT22;33686;48.770;9.186;2024-01-07T08:57:00;3.60;99.90
47921;DHT22;33686;48.770;9.186;2024-01-07T08:59:25;3.60;99.90
47921;DHT22;33686;48.770;9.186;2024-01-07T09:01:51;3.50;99.90
47921;DHT22;33686;48.770;9.186;2024-01-07T09:04:16;3.50;99.90
47921;DHT22;33686;48.770;9.186;2024-01-07T09:06:43;3.50;99.90
47921;DHT22;33686;48.770;9.186;2024-01-07T09:09:09;3.40;99.90
47921;DHT22;33686;48.770;9.186;2024-01-07T09:11:34;3.50;99.90
47921;DHT22;33686;48.770;9.186;2024-01-07T09:14:01;3.40;99.90
47921;DHT22;33686;48.770;9.186;2024-01-07T09:16:26;3.50;99.90
47921;DHT22;33686;48.770;9.186;2024-01-07T09:18:52;3.40;99.90
47921;DHT22;33686;48.770;9.186;2024-01-07T09:21:17;3.40;99.90
47921;DHT22;33686;48.770;9.186;2024-01-07T09:23:44;3.50;99.90
47921;DHT22;33686;48.770;9.186;2024-01-07T09:26:09;3.50;99.90
47921;DHT22;33686;48.770;9.186;2024-01-07T09:28:35;3.50;99.90
47921;DHT22;33686;48.770;9.186;2024-01-07T09:31:00;3.50;99.90
47921;DHT22;33686;48.770;9.186;2024-01-07T09:33:26;3.50;99.90
47921;DHT22;33686;48.770;9.186;2024-01-07T09:35:52;3.50;99.90
47921;DHT22;33686;48.770;9.186;2024-01-07T09:38:19;3.50;99.90
47921;DHT22;33686;48.770;9.186;2024-01-07T09:40:45;3.50;99.90
47921;DHT22;33686;48.770;9.186;2024-01-07T09:43:10;3.40;99.90
47921;DHT22;33686;48.770;9.186;2024-01-07T09:45:38;3.40;99.90
47921;DHT22;33686;48.770;9.186;2024-01-07T09:48:05;3.30;99.90
47921;DHT22;33686;48.770;9.186;2024-01-07T09:50:31;3.40;99.90
47921;DHT22;33686;48.770;9.186;2024-01-07T09:52:57;3.40;99.90
47921;DHT22;33686;48.770;9.186;2024-01-07T09:55:47;3.30;99.90
47921;DHT22;33686;48.770;9.186;2024-01-07T09:58:17;3.40;99.90
47921;DHT22;33686;48.770;9.186;2024-01-07T10:00:42;3.40;99.90
47921;DHT22;33686;48.770;9.186;2024-01-07T10:03:08;3.40;99.90
47921;DHT22;33686;48.770;9.186;2024-01-07T10:05:34;3.30;99.90
47921;DHT22;33686;48.770;9.186;2024-01-07T10:08:00;3.20;99.90
47921;DHT22;33686;48.770;9.186;2024-01-07T10:10:26;3.30;99.90
47921;DHT22;33686;48.770;9.186;2024-01-07T10:12:52;3.20;99.90
47921;DHT22;33686;48.770;9.186;2024-01-07T10:15:18;3.30;99.90
47921;DHT22;33686;48.770;9.186;2024-01-07T10:17:45;3.30;99.90
47921;DHT22;33686;48.770;9.186;2024-01-07T10:20:11;3.20;99.90
47921;DHT22;33686;48.770;9.186;2024-01-07T10:22:38;3.20;99.90
47921;DHT22;33686;48.770;9.186;2024-01-07T10:25:05;3.20;99.90
47921;DHT22;33686;48.770;9.186;2024-01-07T10:27:34;3.20;99.90
47921;DHT22;33686;48.770;9.186;2024-01-07T10:30:04;3.20;99.90
47921;DHT22;33686;48.770;9.186;2024-01-07T10:32:30;3.10;99.90
47921;DHT22;33686;48.770;9.186;2024-01-07T10:35:03;3.10;99.90
47921;DHT22;33686;48.770;9.186;2024-01-07T10:37:30;3.10;99.90
47921;DHT22;33686;48.770;9.186;2024-01-07T10:39:58;3.00;99.90
47921;DHT22;33686;48.770;9.186;2024-01-07T10:42:30;3.00;99.90
47921;DHT22;33686;48.770;9.186;2024-01-07T10:44:56;2.90;99.90
47921;DHT22;33686;48.770;9.186;2024-01-07T10:47:22;2.80;99.90
47921;DHT22;33686;48.770;9.186;2024-01-07T10:49:50;2.80;99.90
47921;DHT22;33686;48.770;9.186;2024-01-07T10:52:16;2.80;99.90
47921;DHT22;33686;48.770;9.186;2024-01-07T10:54:44;2.80;99.90
47921;DHT22;33686;48.770;9.186;2024-01-07T10:57:39;2.80;99.90
47921;DHT22;33686;48.770;9.186;2024-01-07T11:00:08;2.80;99.90
47921;DHT22;33686;48.770;9.186;2024-01-07T11:02:40;2.80;99.90
47921;DHT22;33686;48.770;9.186;2024-01-07T11:05:16;2.90;99.90
47921;DHT22;33686;48.770;9.186;2024-01-07T11:08:07;2.90;99.90
47921;DHT22;33686;48.770;9.186;2024-01-07T11:10:39;2.80;99.90
47921;DHT22;33686;48.770;9.186;2024-01-07T11:13:07;2.80;99.90
47921;DHT22;33686;48.770;9.186;2024-01-07T11:18:22;2.90;99.90
47921;DHT22;33686;48.770;9.186;2024-01-07T11:20:49;2.80;99.90
47921;DHT22;33686;48.770;9.186;2024-01-07T11:23:31;2.80;99.90
47921;DHT22;33686;48.770;9.186;2024-01-07T11:25:59;2.90;99.90
47921;DHT22;33686;48.770;9.186;2024-01-07T11:28:46;2.90;99.90
47921;DHT22;33686;48.770;9.186;2024-01-07T11:31:13;2.90;99.90
47921;DHT22;33686;48.770;9.186;2024-01-07T11:33:45;2.90;99.90
47921;DHT22;33686;48.770;9.186;2024-01-07T11:36:12;2.90;99.90
47921;DHT22;33686;48.770;9.186;2024-01-07T11:38:44;3.00;99.90
47921;DHT22;33686;48.770;9.186;2024-01-07T11:41:14;2.90;99.90
47921;DHT22;33686;48.770;9.186;2024-01-07T11:43:57;2.90;99.90
47921;DHT22;33686;48.770;9.186;2024-01-07T11:46:25;2.90;99.90
47921;DHT22;33686;48.770;9.186;2024-01-07T11:48:55;2.90;99.90
47921;DHT22;33686;48.770;9.186;2024-01-07T11:51:31;2.90;99.90
47921;DHT22;33686;48.770;9.186;2024-01-07T11:53:58;2.90;99.90
47921;DHT22;33686;48.770;9.186;2024-01-07T11:56:27;2.90;99.90
47921;DHT22;33686;48.770;9.186;2024-01-07T11:58:53;2.90;99.90
47921;DHT22;33686;48.770;9.186;2024-01-07T12:01:19;2.90;99.90
47921;DHT22;33686;48.770;9.186;2024-01-07T12:03:45;2.80;99.90
47921;DHT22;33686;48.770;9.186;2024-01-07T12:06:12;2.80;99.90
47921;DHT22;33686;48.770;9.186;2024-01-07T12:08:42;2.70;99.90
47921;DHT22;33686;48.770;9.186;2024-01-07T12:11:11;2.70;99.90
47921;DHT22;33686;48.770;9.186;2024-01-07T12:13:37;2.70;99.90
47921;DHT22;33686;48.770;9.186;2024-01-07T12:16:04;2.70;99.90
47921;DHT22;33686;48.770;9.186;2024-01-07T12:18:30;2.60;99.90
47921;DHT22;33686;48.770;9.186;2024-01-07T12:20:59;2.60;99.90
47921;DHT22;33686;48.770;9.186;2024-01-07T12:23:28;2.60;99.90
47921;DHT22;33686;48.770;9.186;2024-01-07T12:25:54;2.50;99.90
47921;DHT22;33686;48.770;9.186;2024-01-07T12:28:21;2.50;99.90
47921;DHT22;33686;48.770;9.186;2024-01-07T12:30:50;2.40;99.90
47921;DHT22;33686;48.770;9.186;2024-01-07T12:33:21;2.40;99.90
47921;DHT22;33686;48.770;9.186;2024-01-07T12:35:47;2.40;99.90
47921;DHT22;33686;48.770;9.186;2024-01-07T12:38:13;2.30;99.90
47921;DHT22;33686;48.770;9.186;2024-01-07T12:40:39;2.30;99.90
47921;DHT22;33686;48.770;9.186;2024-01-07T12:43:05;2.40;99.90
47921;DHT22;33686;48.770;9.186;2024-01-07T12:45:33;2.40;99.90
47921;DHT22;33686;48.770;9.186;2024-01-07T12:47:59;2.40;99.90
47921;DHT22;33686;48.770;9.186;2024-01-07T12:50:28;2.20;99.90
47921;DHT22;33686;48.770;9.186;2024-01-07T12:52:55;2.20;99.90
47921;DHT22;33686;48.770;9.186;2024-01-07T12:55:21;2.10;99.90
47921;DHT22;33686;48.770;9.186;2024-01-07T12:57:47;2.10;99.90
47921;DHT22;33686;48.770;9.186;2024-01-07T13:00:13;2.20;99.90
47921;DHT22;33686;48.770;9.186;2024-01-07T13:02:38;2.20;99.90
47921;DHT22;33686;48.770;9.186;2024-01-07T13:05:05;2.20;99.90
47921;DHT22;33686;48.770;9.186;2024-01-07T13:07:32;2.10;99.90
47921;DHT22;33686;48.770;9.186;2024-01-07T13:09:58;2.10;99.90
47921;DHT22;33686;48.770;9.186;2024-01-07T13:12:23;2.10;99.90
47921;DHT22;33686;48.770;9.186;2024-01-07T13:14:49;2.10;99.90
47921;DHT22;33686;48.770;9.186;2024-01-07T13:17:15;2.10;99.90
47921;DHT22;33686;48.770;9.186;2024-01-07T13:19:40;2.10;99.90
47921;DHT22;33686;48.770;9.186;2024-01-07T13:22:07;2.10;99.90
47921;DHT22;33686;48.770;9.186;2024-01-07T13:24:33;2.10;99.90
47921;DHT22;33686;48.770;9.186;2024-01-07T13:26:58;2.00;99.90
47921;DHT22;33686;48.770;9.186;2024-01-07T13:29:24;1.80;99.90
47921;DHT22;33686;48.770;9.186;2024-01-07T13:31:50;1.90;99.90
47921;DHT22;33686;48.770;9.186;2024-01-07T13:34:16;1.80;99.90
47921;DHT22;33686;48.770;9.186;2024-01-07T13:36:43;1.90;99.90
47921;DHT22;33686;48.770;9.186;2024-01-07T13:39:09;1.90;99.90
47921;DHT22;33686;48.770;9.186;2024-01-07T13:41:35;1.90;99.90
47921;DHT22;33686;48.770;9.186;2024-01-07T13:44:01;1.90;99.90
47921;DHT22;33686;48.770;9.186;2024-01-07T13:46:28;1.90;99.90
47921;DHT22;33686;48.770;9.186;2024-01-07T13:48:54;1.90;99.90
47921;DHT22;33686;48.770;9.186;2024-01-07T13:51:20;1.70;99.90
47921;DHT22;33686;48.770;9.186;2024-01-07T13:53:45;1.60;99.90
47921;DHT22;33686;48.770;9.186;2024-01-07T13:56:12;1.70;99.90
47921;DHT22;33686;48.770;9.186;2024-01-07T13:58:38;1.70;99.90
47921;DHT22;33686;48.770;9.186;2024-01-07T14:01:04;1.60;99.90
47921;DHT22;33686;48.770;9.186;2024-01-07T14:03:33;1.60;99.90
47921;DHT22;33686;48.770;9.186;2024-01-07T14:05:59;1.60;99.90
47921;DHT22;33686;48.770;9.186;2024-01-07T14:08:26;1.60;99.90
47921;DHT22;33686;48.770;9.186;2024-01-07T14:10:52;1.60;99.90
47921;DHT22;33686;48.770;9.186;2024-01-07T14:13:17;1.60;99.90
47921;DHT22;33686;48.770;9.186;2024-01-07T14:15:44;1.60;99.90
47921;DHT22;33686;48.770;9.186;2024-01-07T14:18:10;1.50;99.90
47921;DHT22;33686;48.770;9.186;2024-01-07T14:20:40;1.60;99.90
47921;DHT22;33686;48.770;9.186;2024-01-07T14:23:06;1.60;99.90
47921;DHT22;33686;48.770;9.186;2024-01-07T14:25:31;1.50;99.90
47921;DHT22;33686;48.770;9.186;2024-01-07T14:27:57;1.40;99.90
47921;DHT22;33686;48.770;9.186;2024-01-07T14:30:22;1.50;99.90
47921;DHT22;33686;48.770;9.186;2024-01-07T14:32:48;1.40;99.90
47921;DHT22;33686;48.770;9.186;2024-01-07T14:35:14;1.30;99.90
47921;DHT22;33686;48.770;9.186;2024-01-07T14:37:39;1.10;99.90
47921;DHT22;33686;48.770;9.186;2024-01-07T14:40:06;1.10;99.90
47921;DHT22;33686;48.770;9.186;2024-01-07T14:42:32;1.10;99.90
47921;DHT22;33686;48.770;9.186;2024-01-07T14:44:57;1.20;99.90
47921;DHT22;33686;48.770;9.186;2024-01-07T14:47:23;1.20;99.90
47921;DHT22;33686;48.770;9.186;2024-01-07T14:49:49;1.10;99.90
47921;DHT22;33686;48.770;9.186;2024-01-07T14:52:14;1.10;99.90
47921;DHT22;33686;48.770;9.186;2024-01-07T14:54:40;1.00;99.90
47921;DHT22;33686;48.770;9.186;2024-01-07T14:57:06;1.00;99.90
47921;DHT22;33686;48.770;9.186;2024-01-07T14:59:34;1.00;99.90
47921;DHT22;33686;48.770;9.186;2024-01-07T15:02:01;0.90;99.90
47921;DHT22;33686;48.770;9.186;2024-01-07T15:04:27;1.10;99.90
47921;DHT22;33686;48.770;9.186;2024-01-07T15:06:53;1.00;99.90
47921;DHT22;33686;48.770;9.186;2024-01-07T15:09:19;0.90;99.90
47921;DHT22;33686;48.770;9.186;2024-01-07T15:11:46;0.90;99.90
47921;DHT22;33686;48.770;9.186;2024-01-07T15:14:14;0.80;99.90
47921;DHT22;33686;48.770;9.186;2024-01-07T15:16:39;0.80;99.90
47921;DHT22;33686;48.770;9.186;2024-01-07T15:19:05;0.80;99.90
47921;DHT22;33686;48.770;9.186;2024-01-07T15:21:31;0.70;99.90
47921;DHT22;33686;48.770;9.186;2024-01-07T15:23:56;0.70;99.90
47921;DHT22;33686;48.770;9.186;2024-01-07T15:26:22;0.80;99.90
47921;DHT22;33686;48.770;9.186;2024-01-07T15:28:48;0.70;99.90
47921;DHT22;33686;48.770;9.186;2024-01-07T15:31:14;0.70;99.90
47921;DHT22;33686;48.770;9.186;2024-01-07T15:33:39;0.60;99.90
47921;DHT22;33686;48.770;9.186;2024-01-07T15:36:05;0.60;99.90
47921;DHT22;33686;48.770;9.186;2024-01-07T15:38:31;0.50;99.90
47921;DHT22;33686;48.770;9.186;2024-01-07T15:40:57;0.50;99.90
47921;DHT22;33686;48.770;9.186;2024-01-07T15:43:22;0.40;99.90
47921;DHT22;33686;48.770;9.186;2024-01-07T15:45:48;0.30;99.90
47921;DHT22;33686;48.770;9.186;2024-01-07T15:48:13;0.20;99.90
47921;DHT22;33686;48.770;9.186;2024-01-07T15:50:40;0.20;99.90
47921;DHT22;33686;48.770;9.186;2024-01-07T15:53:07;0.20;99.90
47921;DHT22;33686;48.770;9.186;2024-01-07T15:55:32;0.30;99.90
47921;DHT22;33686;48.770;9.186;2024-01-07T15:57:58;0.30;99.90
47921;DHT22;33686;48.770;9.186;2024-01-07T16:00:23;0.20;99.90
47921;DHT22;33686;48.770;9.186;2024-01-07T16:02:49;0.20;99.90
47921;DHT22;33686;48.770;9.186;2024-01-07T16:05:15;0.20;99.90
47921;DHT22;33686;48.770;9.186;2024-01-07T16:07:42;0.30;99.90
47921;DHT22;33686;48.770;9.186;2024-01-07T16:10:07;0.20;99.90
47921;DHT22;33686;48.770;9.186;2024-01-07T16:12:33;0.10;99.90
47921;DHT22;33686;48.770;9.186;2024-01-07T16:14:59;0.00;99.90
47921;DHT22;33686;48.770;9.186;2024-01-07T16:17:25;0.10;99.90
47921;DHT22;33686;48.770;9.186;2024-01-07T16:19:50;0.10;99.90
47921;DHT22;33686;48.770;9.186;2024-01-07T16:22:17;0.10;99.90
47921;DHT22;33686;48.770;9.186;2024-01-07T16:24:43;0.10;99.90
47921;DHT22;33686;48.770;9.186;2024-01-07T16:27:09;0.00;99.90
47921;DHT22;33686;48.770;9.186;2024-01-07T16:29:38;0.10;99.90
47921;DHT22;33686;48.770;9.186;2024-01-07T16:32:05;0.00;99.90
47921;DHT22;33686;48.770;9.186;2024-01-07T16:34:31;0.00;99.90
47921;DHT22;33686;48.770;9.186;2024-01-07T16:36:57;0.00;99.90
47921;DHT22;33686;48.770;9.186;2024-01-07T16:39:23;0.10;99.90
47921;DHT22;33686;48.770;9.186;2024-01-07T16:41:49;0.00;99.90
47921;DHT22;33686;48.770;9.186;2024-01-07T16:44:21;0.00;99.90
47921;DHT22;33686;48.770;9.186;2024-01-07T16:46:47;-0.10;99.90
47921;DHT22;33686;48.770;9.186;2024-01-07T16:49:12;0.00;99.90
47921;DHT22;33686;48.770;9.186;2024-01-07T16:51:38;-0.10;99.90
47921;DHT22;33686;48.770;9.186;2024-01-07T16:54:04;-0.10;99.90
47921;DHT22;33686;48.770;9.186;2024-01-07T16:56:29;0.00;99.90
47921;DHT22;33686;48.770;9.186;2024-01-07T16:58:55;-0.10;99.90
47921;DHT22;33686;48.770;9.186;2024-01-07T17:01:21;0.00;99.90
47921;DHT22;33686;48.770;9.186;2024-01-07T17:03:46;0.00;99.90
47921;DHT22;33686;48.770;9.186;2024-01-07T17:06:12;0.00;99.90
47921;DHT22;33686;48.770;9.186;2024-01-07T17:08:38;0.00;99.90
47921;DHT22;33686;48.770;9.186;2024-01-07T17:11:03;0.00;99.90
47921;DHT22;33686;48.770;9.186;2024-01-07T17:13:29;0.00;99.90
47921;DHT22;33686;48.770;9.186;2024-01-07T17:15:55;-0.10;99.90
47921;DHT22;33686;48.770;9.186;2024-01-07T17:18:21;-0.10;99.90
47921;DHT22;33686;48.770;9.186;2024-01-07T17:20:47;-0.10;99.90
47921;DHT22;33686;48.770;9.186;2024-01-07T17:23:13;-0.20;99.90
47921;DHT22;33686;48.770;9.186;2024-01-07T17:25:43;-0.10;99.90
47921;DHT22;33686;48.770;9.186;2024-01-07T17:28:08;-0.20;99.90
47921;DHT22;33686;48.770;9.186;2024-01-07T17:30:34;-0.20;99.90
47921;DHT22;33686;48.770;9.186;2024-01-07T17:33:03;-0.30;99.90
47921;DHT22;33686;48.770;9.186;2024-01-07T17:35:31;-0.30;99.90
47921;DHT22;33686;48.770;9.186;2024-01-07T17:37:57;-0.30;99.90
47921;DHT22;33686;48.770;9.186;2024-01-07T17:40:22;-0.30;99.90
47921;DHT22;33686;48.770;9.186;2024-01-07T17:42:48;-0.40;99.90
47921;DHT22;33686;48.770;9.186;2024-01-07T17:45:14;-0.40;99.90
47921;DHT22;33686;48.770;9.186;2024-01-07T17:47:40;-0.30;99.90
47921;DHT22;33686;48.770;9.186;2024-01-07T17:50:07;-0.30;99.90
47921;DHT22;33686;48.770;9.186;2024-01-07T17:52:35;-0.30;99.90
47921;DHT22;33686;48.770;9.186;2024-01-07T17:55:00;-0.50;99.90
47921;DHT22;33686;48.770;9.186;2024-01-07T17:57:28;-0.50;99.90
47921;DHT22;33686;48.770;9.186;2024-01-07T17:59:58;-0.50;99.90
47921;DHT22;33686;48.770;9.186;2024-01-07T18:02:33;-0.50;99.90
47921;DHT22;33686;48.770;9.186;2024-01-07T18:05:00;-0.50;99.90
47921;DHT22;33686;48.770;9.186;2024-01-07T18:07:26;-0.50;99.90
47921;DHT22;33686;48.770;9.186;2024-01-07T18:09:51;-0.60;99.90
47921;DHT22;33686;48.770;9.186;2024-01-07T18:12:18;-0.50;99.90
47921;DHT22;33686;48.770;9.186;2024-01-07T18:14:44;-0.50;99.90
47921;DHT22;33686;48.770;9.186;2024-01-07T18:17:10;-0.60;99.90
47921;DHT22;33686;48.770;9.186;2024-01-07T18:19:36;-0.50;99.90
47921;DHT22;33686;48.770;9.186;2024-01-07T18:22:01;-0.60;99.90
47921;DHT22;33686;48.770;9.186;2024-01-07T18:24:28;-0.60;99.90
47921;DHT22;33686;48.770;9.186;2024-01-07T18:26:56;-0.60;99.90
47921;DHT22;33686;48.770;9.186;2024-01-07T18:29:23;-0.60;99.90
47921;DHT22;33686;48.770;9.186;2024-01-07T18:31:48;-0.50;99.90
47921;DHT22;33686;48.770;9.186;2024-01-07T18:34:15;-0.50;99.90
47921;DHT22;33686;48.770;9.186;2024-01-07T18:36:40;-0.60;99.90
47921;DHT22;33686;48.770;9.186;2024-01-07T18:39:06;-0.50;99.90
47921;DHT22;33686;48.770;9.186;2024-01-07T18:41:36;-0.60;99.90
47921;DHT22;33686;48.770;9.186;2024-01-07T18:44:03;-0.60;99.90
47921;DHT22;33686;48.770;9.186;2024-01-07T18:46:29;-0.60;99.90
47921;DHT22;33686;48.770;9.186;2024-01-07T18:48:54;-0.60;99.90
47921;DHT22;33686;48.770;9.186;2024-01-07T18:51:20;-0.60;99.90
47921;DHT22;33686;48.770;9.186;2024-01-07T18:53:46;-0.70;99.90
47921;DHT22;33686;48.770;9.186;2024-01-07T18:56:12;-0.70;99.90
47921;DHT22;33686;48.770;9.186;2024-01-07T18:58:37;-0.80;99.90
47921;DHT22;33686;48.770;9.186;2024-01-07T19:01:05;-0.80;99.90
47921;DHT22;33686;48.770;9.186;2024-01-07T19:03:32;-0.80;99.90
47921;DHT22;33686;48.770;9.186;2024-01-07T19:05:57;-0.80;99.90
47921;DHT22;33686;48.770;9.186;2024-01-07T19:08:27;-0.80;99.90
47921;DHT22;33686;48.770;9.186;2024-01-07T19:10:52;-0.80;99.90
47921;DHT22;33686;48.770;9.186;2024-01-07T19:13:18;-0.90;99.90
47921;DHT22;33686;48.770;9.186;2024-01-07T19:15:44;-0.90;99.90
47921;DHT22;33686;48.770;9.186;2024-01-07T19:18:13;-0.90;99.90
47921;DHT22;33686;48.770;9.186;2024-01-07T19:20:39;-0.90;99.90
47921;DHT22;33686;48.770;9.186;2024-01-07T19:23:12;-0.90;99.90
47921;DHT22;33686;48.770;9.186;2024-01-07T19:25:38;-0.90;99.90
47921;DHT22;33686;48.770;9.186;2024-01-07T19:28:04;-1.00;99.90
47921;DHT22;33686;48.770;9.186;2024-01-07T19:30:29;-0.90;99.90
47921;DHT22;33686;48.770;9.186;2024-01-07T19:32:56;-0.90;99.90
47921;DHT22;33686;48.770;9.186;2024-01-07T19:35:22;-1.00;99.90
47921;DHT22;33686;48.770;9.186;2024-01-07T19:37:48;-1.00;99.90
47921;DHT22;33686;48.770;9.186;2024-01-07T19:40:15;-1.10;99.90
47921;DHT22;33686;48.770;9.186;2024-01-07T19:42:41;-1.10;99.90
47921;DHT22;33686;48.770;9.186;2024-01-07T19:45:07;-1.10;99.90
47921;DHT22;33686;48.770;9.186;2024-01-07T19:47:33;-1.10;99.90
47921;DHT22;33686;48.770;9.186;2024-01-07T19:49:58;-1.10;99.90
47921;DHT22;33686;48.770;9.186;2024-01-07T19:52:24;-1.10;99.90
47921;DHT22;33686;48.770;9.186;2024-01-07T19:54:50;-1.20;99.90
47921;DHT22;33686;48.770;9.186;2024-01-07T19:57:16;-1.20;99.90
47921;DHT22;33686;48.770;9.186;2024-01-07T19:59:41;-1.30;99.90
47921;DHT22;33686;48.770;9.186;2024-01-07T20:02:07;-1.30;99.90
47921;DHT22;33686;48.770;9.186;2024-01-07T20:04:33;-1.30;99.90
47921;DHT22;33686;48.770;9.186;2024-01-07T20:06:58;-1.30;99.90
47921;DHT22;33686;48.770;9.186;2024-01-07T20:09:28;-1.50;99.90
47921;DHT22;33686;48.770;9.186;2024-01-07T20:11:54;-1.40;99.90
47921;DHT22;33686;48.770;9.186;2024-01-07T20:14:19;-1.50;99.90
47921;DHT22;33686;48.770;9.186;2024-01-07T20:16:45;-1.50;99.90
47921;DHT22;33686;48.770;9.186;2024-01-07T20:19:11;-1.70;99.90
47921;DHT22;33686;48.770;9.186;2024-01-07T20:21:36;-1.60;99.90
47921;DHT22;33686;48.770;9.186;2024-01-07T20:24:03;-1.70;99.90
47921;DHT22;33686;48.770;9.186;2024-01-07T20:26:30;-1.80;99.90
47921;DHT22;33686;48.770;9.186;2024-01-07T20:28:59;-1.70;99.90
47921;DHT22;33686;48.770;9.186;2024-01-07T20:31:26;-1.70;99.90
47921;DHT22;33686;48.770;9.186;2024-01-07T20:33:55;-1.70;99.90
47921;DHT22;33686;48.770;9.186;2024-01-07T20:36:21;-1.80;99.90
47921;DHT22;33686;48.770;9.186;2024-01-07T20:38:47;-1.80;99.90
47921;DHT22;33686;48.770;9.186;2024-01-07T20:41:13;-1.70;99.90
47921;DHT22;33686;48.770;9.186;2024-01-07T20:43:39;-1.70;99.90
47921;DHT22;33686;48.770;9.186;2024-01-07T20:46:05;-1.70;99.90
47921;DHT22;33686;48.770;9.186;2024-01-07T20:48:31;-1.70;99.90
47921;DHT22;33686;48.770;9.186;2024-01-07T20:50:59;-1.90;99.90
47921;DHT22;33686;48.770;9.186;2024-01-07T20:53:24;-1.80;99.90
47921;DHT22;33686;48.770;9.186;2024-01-07T20:55:50;-1.90;99.90
47921;DHT22;33686;48.770;9.186;2024-01-07T20:58:20;-1.80;99.90
47921;DHT22;33686;48.770;9.186;2024-01-07T21:00:46;-2.00;99.90
47921;DHT22;33686;48.770;9.186;2024-01-07T21:03:13;-1.90;99.90
47921;DHT22;33686;48.770;9.186;2024-01-07T21:05:39;-1.80;99.90
47921;DHT22;33686;48.770;9.186;2024-01-07T21:08:04;-1.90;99.90
47921;DHT22;33686;48.770;9.186;2024-01-07T21:10:32;-1.90;99.90
47921;DHT22;33686;48.770;9.186;2024-01-07T21:12:57;-1.90;99.90
47921;DHT22;33686;48.770;9.186;2024-01-07T21:15:23;-2.00;99.90
47921;DHT22;33686;48.770;9.186;2024-01-07T21:17:49;-2.00;99.90
47921;DHT22;33686;48.770;9.186;2024-01-07T21:20:15;-2.00;99.90
47921;DHT22;33686;48.770;9.186;2024-01-07T21:22:41;-2.00;99.90
47921;DHT22;33686;48.770;9.186;2024-01-07T21:25:08;-2.00;99.90
47921;DHT22;33686;48.770;9.186;2024-01-07T21:27:35;-2.00;99.90
47921;DHT22;33686;48.770;9.186;2024-01-07T21:30:01;-2.20;99.90
47921;DHT22;33686;48.770;9.186;2024-01-07T21:32:27;-2.00;99.90
47921;DHT22;33686;48.770;9.186;2024-01-07T21:34:55;-2.10;99.90
47921;DHT22;33686;48.770;9.186;2024-01-07T21:37:22;-2.20;99.90
47921;DHT22;33686;48.770;9.186;2024-01-07T21:39:48;-2.10;99.90
47921;DHT22;33686;48.770;9.186;2024-01-07T21:42:14;-2.00;99.90
47921;DHT22;33686;48.770;9.186;2024-01-07T21:44:41;-2.00;99.90
47921;DHT22;33686;48.770;9.186;2024-01-07T21:47:07;-2.10;99.90
47921;DHT22;33686;48.770;9.186;2024-01-07T21:49:32;-1.90;99.90
47921;DHT22;33686;48.770;9.186;2024-01-07T21:51:58;-1.90;99.90
47921;DHT22;33686;48.770;9.186;2024-01-07T21:54:24;-2.10;99.90
47921;DHT22;33686;48.770;9.186;2024-01-07T21:56:51;-2.20;99.90